Weather at Santo Domingo / Kewa Pueblo Heliport

Public forecast

Using degrees Fahrenheit for public forecast. Weather courtesy of forecast.io.

Closest aviation weather report (METAR) to Santo Domingo / Kewa Pueblo Heliport

Closest report is Santa Fe Municipal Airport, 13.7 nm (25.3 km) NE.

2024/07/22 11:53 (retrieved 13 minutes ago)

KSAF 221153Z AUTO 32003KT 10SM CLR 12/10 A3035 RMK AO2 SLP195 T01170100 10161 20111 53003

Closest aviation forecast (TAF) to Santo Domingo / Kewa Pueblo Heliport

Closest forecast is Santa Fe Municipal Airport, 13.7 nm (25.3 km) NE.

2024/07/22 12:22 (retrieved 0 seconds ago)

TAF KSAF 221120Z 2212/2312 13006KT P6SM FEW040 FM222200 12011KT P6SM VCSH SCT050 BKN090 TEMPO 2222/2301 VRB18G30KT 6SM -TSRA BKN070CB FM230200 12008KT P6SM SCT100